Time;durP1;ratioP1;P1;durP2;ratioP2;P2;SDS_P1;SDS_P2;PMS_P1;PMS_P2;Temp;Humidity;BMP_temperature;BMP_pressure;BME280_temperature;BME280_humidity;BME280_pressure;Samples;Min_cycle;Max_cycle;Signal;HPM_P1;HPM_P2
2022/06/23 00:01:23;;;;;;;25.02;8.60;;;;;;;24.29;51.35;98914.06;4954475;29;20027;-77
2022/06/23 00:03:54;;;;;;;21.17;6.43;;;;;;;24.29;51.55;98914.06;4969090;28;20042;-77
2022/06/23 00:06:59;;;;;;;18.98;7.45;;;;;;;24.53;51.30;98924.09;4941767;28;20037;-77
2022/06/23 00:09:31;;;;;;;18.20;7.22;;;;;;;24.44;52.07;98921.06;4953872;28;20043;-77
2022/06/23 00:11:58;;;;;;;19.45;8.80;;;;;;;24.17;52.85;98916.34;4954218;29;20031;-77
2022/06/23 00:14:25;;;;;;;20.80;7.78;;;;;;;24.14;52.72;98914.38;4969071;28;20042;-77
2022/06/23 00:16:51;;;;;;;18.90;8.57;;;;;;;24.08;53.22;98921.84;4954212;29;20054;-77
2022/06/23 00:19:16;;;;;;;15.48;8.05;;;;;;;23.91;52.52;98916.06;4953995;29;20122;-77
2022/06/23 00:21:46;;;;;;;19.85;7.32;;;;;;;23.74;52.33;98911.53;4962159;28;20061;-77
2022/06/23 00:24:23;;;;;;;17.33;7.45;;;;;;;23.69;52.72;98907.94;4973315;28;20031;-77
2022/06/23 00:26:50;;;;;;;14.80;7.25;;;;;;;23.56;52.62;98898.44;4973332;28;20037;-77
2022/06/23 00:29:19;;;;;;;10.88;6.25;;;;;;;23.67;52.25;98910.44;4973193;28;20443;-77
2022/06/23 00:31:53;;;;;;;29.15;7.72;;;;;;;23.52;53.42;98909.09;4938476;29;20097;-77
2022/06/23 00:34:38;;;;;;;29.58;8.48;;;;;;;23.50;53.38;98918.09;4968708;28;20109;-77
2022/06/23 00:37:13;;;;;;;16.27;7.13;;;;;;;23.72;53.09;98911.97;4960572;28;20039;-77
2022/06/23 00:39:43;;;;;;;14.25;7.10;;;;;;;23.92;52.94;98914.00;4953763;29;20031;-77
2022/06/23 00:42:26;;;;;;;15.88;7.38;;;;;;;24.02;52.68;98918.69;4953697;28;20114;-77
2022/06/23 00:44:54;;;;;;;21.15;8.00;;;;;;;24.04;52.84;98919.06;4936758;29;20035;-77
2022/06/23 00:47:25;;;;;;;17.35;6.38;;;;;;;24.20;52.01;98917.53;4970444;28;20102;-77
2022/06/23 00:49:52;;;;;;;21.50;6.70;;;;;;;24.19;52.51;98922.44;4938841;29;20135;-77
2022/06/23 00:52:50;;;;;;;26.80;9.00;;;;;;;24.00;53.67;98931.78;4953870;28;20497;-77
2022/06/23 00:55:54;;;;;;;21.23;7.55;;;;;;;23.98;53.32;98927.31;4938762;29;20047;-77
2022/06/23 00:58:41;;;;;;;19.27;7.68;;;;;;;23.98;53.29;98923.69;4928611;28;20050;-77
2022/06/23 01:01:10;;;;;;;22.77;7.00;;;;;;;23.82;53.31;98922.34;4936137;29;20479;-77
2022/06/23 01:04:05;;;;;;;18.88;7.40;;;;;;;23.04;55.81;98926.22;4936121;29;20027;-77
2022/06/23 01:06:36;;;;;;;26.67;8.18;;;;;;;22.55;56.84;98929.47;4937057;28;20066;-76
2022/06/23 01:09:15;;;;;;;15.98;7.38;;;;;;;22.77;56.18;98918.53;4964763;28;20035;-77
2022/06/23 01:12:04;;;;;;;23.33;8.05;;;;;;;23.14;55.68;98908.13;4953209;29;20036;-77
2022/06/23 01:15:02;;;;;;;17.25;7.25;;;;;;;23.17;55.28;98917.03;4953403;29;20479;-77
2022/06/23 01:17:50;;;;;;;17.65;6.57;;;;;;;23.09;55.53;98908.63;4921335;29;20043;-77
2022/06/23 01:20:40;;;;;;;18.05;7.78;;;;;;;23.29;55.10;98919.31;4953457;29;20027;-77
2022/06/23 01:23:14;;;;;;;20.50;8.38;;;;;;;23.03;56.01;98913.22;4953226;29;20062;-76
2022/06/23 01:26:17;;;;;;;13.00;8.23;;;;;;;22.71;57.11;98911.72;4972408;28;20102;-77
2022/06/23 01:28:43;;;;;;;21.20;9.45;;;;;;;22.61;56.95;98887.84;4955101;28;20038;-76
2022/06/23 01:31:38;;;;;;;19.55;8.18;;;;;;;22.58;56.72;98900.94;4954402;28;20031;-77
2022/06/23 01:34:22;;;;;;;19.50;8.98;;;;;;;22.34;56.92;98893.56;4974221;28;20038;-77
2022/06/23 01:37:18;;;;;;;22.85;7.70;;;;;;;22.49;56.76;98885.59;4957918;28;20507;-77
2022/06/23 01:39:52;;;;;;;20.30;7.68;;;;;;;22.58;57.05;98888.72;4920921;29;20047;-77
2022/06/23 01:42:45;;;;;;;18.88;7.35;;;;;;;22.50;56.73;98893.72;4973269;28;20050;-77
2022/06/23 01:45:34;;;;;;;15.88;8.18;;;;;;;22.34;57.08;98905.72;4950721;28;20031;-77
2022/06/23 01:48:12;;;;;;;13.47;8.47;;;;;;;22.34;57.44;98910.63;4956870;29;20039;-77
2022/06/23 01:50:51;;;;;;;16.25;6.88;;;;;;;22.40;57.29;98917.44;4956539;29;20513;-77
2022/06/23 01:53:16;;;;;;;15.13;7.47;;;;;;;22.49;57.15;98926.31;4956809;29;20226;-77
2022/06/23 01:56:22;;;;;;;15.38;7.70;;;;;;;22.44;56.94;98918.19;4956492;29;20716;-77
2022/06/23 01:58:56;;;;;;;13.40;6.45;;;;;;;22.50;56.28;98913.66;4956802;29;20055;-77
2022/06/23 02:01:43;;;;;;;20.20;7.50;;;;;;;22.43;55.91;98908.03;4956567;29;20078;-77
2022/06/23 02:04:21;;;;;;;17.15;7.07;;;;;;;22.41;55.24;98899.13;4958412;28;20031;-76
2022/06/23 02:07:12;;;;;;;44.72;7.78;;;;;;;22.47;55.66;98903.13;4975861;28;20041;-77
2022/06/23 02:09:43;;;;;;;18.83;6.57;;;;;;;22.62;54.93;98920.81;4962098;28;20443;-77
2022/06/23 02:12:46;;;;;;;10.40;6.22;;;;;;;22.42;55.53;98924.34;4958272;28;20740;-77
2022/06/23 02:15:24;;;;;;;19.98;6.55;;;;;;;22.52;55.33;98908.34;4963854;28;20107;-77
2022/06/23 02:17:55;;;;;;;16.92;6.82;;;;;;;22.60;55.33;98909.03;4956361;29;20031;-76
2022/06/23 02:20:56;;;;;;;22.35;8.00;;;;;;;22.52;55.60;98907.56;4956153;29;20387;-76
2022/06/23 02:23:35;;;;;;;12.48;6.57;;;;;;;22.36;56.08;98905.31;4942679;29;20514;-77
2022/06/23 02:26:15;;;;;;;16.23;7.28;;;;;;;22.61;55.82;98898.44;4938938;29;20031;-77
2022/06/23 02:28:45;;;;;;;24.52;6.43;;;;;;;22.64;55.89;98894.72;4956252;29;20031;-77
2022/06/23 02:31:19;;;;;;;13.18;6.20;;;;;;;22.70;55.88;98896.66;4974036;28;20039;-76
2022/06/23 02:34:08;;;;;;;20.42;7.93;;;;;;;22.71;55.52;98878.31;4975454;28;20031;-77
2022/06/23 02:36:53;;;;;;;17.23;6.88;;;;;;;22.76;55.58;98891.28;4943456;29;20065;-77
2022/06/23 02:39:29;;;;;;;18.90;7.63;;;;;;;22.41;56.57;98893.44;4938219;29;20031;-77
2022/06/23 02:42:00;;;;;;;18.13;7.53;;;;;;;22.44;56.23;98889.72;4938161;28;20028;-77
2022/06/23 02:44:53;;;;;;;19.23;7.55;;;;;;;22.61;56.14;98892.75;4958223;28;20034;-77
2022/06/23 02:47:48;;;;;;;24.08;7.30;;;;;;;22.71;56.08;98889.72;4975189;28;20023;-77
2022/06/23 02:50:31;;;;;;;25.27;7.97;;;;;;;22.78;55.95;98885.94;4974900;28;20038;-77
2022/06/23 02:52:59;;;;;;;29.30;8.32;;;;;;;22.88;55.63;98891.91;4957713;28;20450;-77
2022/06/23 02:55:37;;;;;;;18.90;7.18;;;;;;;22.95;55.35;98874.69;4957321;28;20055;-77
2022/06/23 02:58:18;;;;;;;19.17;6.88;;;;;;;22.74;55.98;98885.22;4975088;28;20066;-77
2022/06/23 03:00:55;;;;;;;15.73;8.40;;;;;;;22.11;57.81;98892.25;4959440;28;20035;-77
2022/06/23 03:03:28;;;;;;;17.42;7.90;;;;;;;21.90;58.04;98885.59;4955123;29;20062;-76
2022/06/23 03:06:02;;;;;;;26.20;8.48;;;;;;;21.79;58.72;98896.31;4938355;29;20035;-77
2022/06/23 03:08:42;;;;;;;27.17;8.15;;;;;;;21.94;58.13;98892.03;4963613;28;20045;-76
2022/06/23 03:11:52;;;;;;;23.35;8.50;;;;;;;22.00;57.87;98884.66;4974427;28;20049;-77
2022/06/23 03:14:45;;;;;;;17.95;7.82;;;;;;;22.08;57.69;98891.06;4967925;28;20417;-77
2022/06/23 03:17:13;;;;;;;17.05;7.50;;;;;;;21.99;57.87;98900.13;4956497;28;20038;-77
2022/06/23 03:20:01;;;;;;;15.05;7.57;;;;;;;22.00;57.93;98890.34;4974322;28;20386;-77
2022/06/23 03:22:57;;;;;;;21.67;7.90;;;;;;;21.67;58.57;98895.66;4973966;28;20512;-77
2022/06/23 03:26:07;;;;;;;21.02;8.45;;;;;;;21.76;58.08;98894.34;4968133;28;20129;-77
2022/06/23 03:28:41;;;;;;;19.05;8.15;;;;;;;21.78;58.22;98906.91;4925617;28;20556;-74
2022/06/23 03:31:31;;;;;;;16.85;7.35;;;;;;;21.74;58.69;98901.25;4954884;29;20031;-75
2022/06/23 03:34:15;;;;;;;;;;;;;;;21.62;59.60;98909.50;4955558;29;20031;-78
2022/06/23 03:36:47;;;;;;;17.25;8.45;;;;;;;21.41;60.73;98909.31;4954765;29;19974;-75
2022/06/23 03:42:49;;;;;;;18.50;8.50;;;;;;;21.59;60.87;98922.53;4931468;29;20513;-75
2022/06/23 03:45:21;;;;;;;17.92;9.07;;;;;;;21.78;60.18;98914.63;4955545;28;20034;-75
2022/06/23 03:48:14;;;;;;;17.75;8.45;;;;;;;21.80;60.30;98912.16;4974004;28;20557;-75
2022/06/23 03:50:57;;;;;;;21.92;8.65;;;;;;;21.97;59.68;98916.00;4974071;28;20031;-76
2022/06/23 03:53:34;;;;;;;18.83;8.85;;;;;;;22.05;59.78;98920.38;4972868;28;20026;-76
2022/06/23 03:56:08;;;;;;;16.90;9.10;;;;;;;21.86;60.33;98927.56;4973220;28;20039;-76
2022/06/23 03:58:45;;;;;;;14.60;8.85;;;;;;;21.89;60.25;98921.00;4956455;28;20030;-76
2022/06/23 04:01:16;;;;;;;21.17;9.65;;;;;;;21.87;60.23;98932.00;4969598;28;20390;-76
2022/06/23 04:04:03;;;;;;;20.95;8.93;;;;;;;22.05;59.87;98933.81;4936988;29;20027;-76
2022/06/23 04:06:37;;;;;;;25.27;10.00;;;;;;;21.96;60.81;98940.84;4937132;29;20023;-75
2022/06/23 04:09:25;;;;;;;22.80;8.60;;;;;;;22.00;60.51;98930.22;4954280;29;20023;-76
2022/06/23 04:11:56;;;;;;;19.05;9.57;;;;;;;22.11;59.97;98932.09;4954238;29;20118;-75
2022/06/23 04:14:37;;;;;;;14.65;8.38;;;;;;;22.04;60.42;98935.03;4936898;29;20119;-75
2022/06/23 04:17:11;;;;;;;14.45;7.82;;;;;;;22.18;59.90;98926.31;4937472;29;20071;-75
2022/06/23 04:19:47;;;;;;;25.85;9.43;;;;;;;21.88;61.25;98917.31;4954324;29;20462;-76
2022/06/23 04:22:37;;;;;;;23.45;8.98;;;;;;;22.11;60.54;98915.03;4971656;28;20074;-76
2022/06/23 04:25:05;;;;;;;15.73;8.70;;;;;;;22.04;60.61;98924.47;4973372;28;20023;-76
2022/06/23 04:27:39;;;;;;;14.45;8.63;;;;;;;22.04;60.17;98924.47;4973339;28;20035;-75
2022/06/23 04:30:05;;;;;;;18.05;7.18;;;;;;;22.13;59.78;98915.41;4955802;28;20027;-75
2022/06/23 04:32:35;;;;;;;13.57;7.75;;;;;;;22.21;59.51;98916.91;4973145;28;20029;-76
2022/06/23 04:35:03;;;;;;;20.48;7.43;;;;;;;22.21;59.19;98910.41;4972388;28;20034;-75
2022/06/23 04:37:56;;;;;;;25.08;8.07;;;;;;;22.20;58.74;98898.19;4973180;28;20114;-75
2022/06/23 04:41:11;;;;;;;17.95;6.57;;;;;;;22.29;59.13;98909.06;4933106;28;20120;-75
2022/06/23 04:43:42;;;;;;;19.95;7.78;;;;;;;22.43;58.97;98916.59;4931489;29;20050;-76
2022/06/23 04:46:26;;;;;;;18.20;7.38;;;;;;;22.19;60.13;98918.56;4953771;29;20023;-75
2022/06/23 04:48:58;;;;;;;16.10;6.88;;;;;;;22.19;60.49;98925.06;4936483;29;20030;-76
2022/06/23 04:51:31;;;;;;;18.60;8.55;;;;;;;22.18;60.66;98917.75;4936435;29;20387;-76
2022/06/23 04:54:11;;;;;;;17.60;6.82;;;;;;;22.36;60.38;98916.72;4953585;29;20490;-76
2022/06/23 04:56:55;;;;;;;23.45;8.70;;;;;;;22.44;60.53;98924.72;4958782;28;20101;-76
2022/06/23 04:59:39;;;;;;;69.97;9.52;;;;;;;22.60;60.52;98919.63;4972914;28;20121;-76
2022/06/23 05:02:35;;;;;;;19.50;8.05;;;;;;;22.91;59.11;98917.50;4972859;28;20406;-76
2022/06/23 05:05:18;;;;;;;15.13;7.50;;;;;;;23.14;58.31;98922.38;4955354;28;20177;-76
2022/06/23 05:08:04;;;;;;;22.30;7.13;;;;;;;23.33;57.62;98922.91;4969643;28;20080;-75
2022/06/23 05:10:34;;;;;;;20.77;7.15;;;;;;;23.57;57.52;98934.28;4953850;28;20118;-76
2022/06/23 05:13:12;;;;;;;22.42;7.40;;;;;;;23.74;56.66;98926.59;4953564;29;20066;-76
2022/06/23 05:15:48;;;;;;;15.40;7.15;;;;;;;23.90;55.42;98928.75;4953489;29;20058;-76
2022/06/23 05:18:27;;;;;;;19.45;8.23;;;;;;;24.07;55.09;98917.38;4953372;29;20086;-76
2022/06/23 05:20:52;;;;;;;15.93;6.75;;;;;;;24.27;54.52;98911.63;4953558;29;20039;-76
2022/06/23 05:23:28;;;;;;;14.27;6.68;;;;;;;24.41;53.80;98916.22;4953201;28;20442;-76
2022/06/23 05:26:02;;;;;;;13.65;6.45;;;;;;;24.43;53.63;98912.91;4953424;29;20046;-76
2022/06/23 05:28:32;;;;;;;14.38;6.70;;;;;;;24.57;52.16;98920.34;4953300;29;20035;-76
2022/06/23 05:31:02;;;;;;;24.77;7.15;;;;;;;24.58;51.80;98919.91;4956918;28;20117;-76
2022/06/23 05:33:34;;;;;;;14.88;6.85;;;;;;;24.66;52.01;98921.34;4953332;28;20405;-76
2022/06/23 05:36:13;;;;;;;14.73;7.30;;;;;;;24.71;50.97;98922.84;4953223;29;20035;-76
2022/06/23 05:38:59;;;;;;;14.75;5.22;;;;;;;24.88;50.45;98926.56;4953401;29;20489;-76
2022/06/23 05:41:30;;;;;;;14.52;6.13;;;;;;;25.00;49.70;98927.91;4953264;29;20378;-76
2022/06/23 05:43:58;;;;;;;14.43;5.70;;;;;;;25.02;48.23;98924.59;4960382;28;20462;-77
2022/06/23 05:46:28;;;;;;;14.50;6.03;;;;;;;25.13;48.24;98912.88;4972599;28;20030;-76
2022/06/23 05:49:10;;;;;;;13.07;6.35;;;;;;;25.20;45.74;98910.63;4972381;28;20544;-76
2022/06/23 05:51:44;;;;;;;20.42;6.28;;;;;;;25.28;47.25;98916.16;4968314;28;20023;-76
2022/06/23 05:54:48;;;;;;;15.43;6.47;;;;;;;25.59;47.55;98927.22;4937791;29;20066;-76
2022/06/23 05:57:38;;;;;;;8.80;5.30;;;;;;;25.61;43.79;98913.25;4870649;29;20515;-76
2022/06/23 06:00:17;;;;;;;13.52;5.18;;;;;;;25.86;43.21;98908.84;4934597;29;20083;-76
2022/06/23 06:02:55;;;;;;;7.22;4.78;;;;;;;25.95;42.57;98908.22;4933937;29;20046;-76
2022/06/23 06:05:35;;;;;;;17.60;5.00;;;;;;;26.00;43.31;98916.22;4943895;29;20407;-76
2022/06/23 06:08:04;;;;;;;;;;;;;;;26.08;42.76;98912.69;4953499;28;20031;-76
2022/06/23 06:10:32;;;;;;;14.80;5.65;;;;;;;25.93;42.65;98914.38;4947564;29;20413;-76
2022/06/23 06:12:58;;;;;;;15.00;5.72;;;;;;;26.05;43.49;98925.06;4952984;28;20066;-76
2022/06/23 06:15:29;;;;;;;14.13;5.22;;;;;;;26.23;43.19;98917.22;4952918;28;20037;-76
2022/06/23 06:18:17;;;;;;;15.23;5.93;;;;;;;26.20;43.01;98919.75;4949849;29;20023;-76
2022/06/23 06:20:43;;;;;;;17.23;7.05;;;;;;;26.19;43.32;98920.19;4947823;28;20562;-75
2022/06/23 06:23:52;;;;;;;13.27;5.63;;;;;;;26.13;43.44;98914.19;4938595;29;20035;-74
2022/06/23 06:26:21;;;;;;;13.73;6.25;;;;;;;26.07;44.88;98907.44;4952172;28;20059;-74
2022/06/23 06:28:47;;;;;;;18.30;7.38;;;;;;;26.08;45.03;98897.56;4949412;29;20113;-74
2022/06/23 06:31:18;;;;;;;18.33;6.47;;;;;;;26.06;45.08;98914.38;4943948;28;20119;-74
2022/06/23 06:33:53;;;;;;;13.98;7.30;;;;;;;26.05;44.62;98901.31;4935056;29;20044;-74
2022/06/23 06:36:41;;;;;;;14.20;6.90;;;;;;;25.98;45.04;98908.06;4936396;29;20046;-74
2022/06/23 06:39:09;;;;;;;27.65;7.43;;;;;;;26.18;45.52;98910.78;4936620;29;20406;-74
2022/06/23 06:41:36;;;;;;;16.15;6.75;;;;;;;26.27;44.93;98926.50;4937218;29;20024;-77
2022/06/23 06:44:03;;;;;;;22.55;6.47;;;;;;;26.19;45.46;98926.72;4948372;28;20043;-76
2022/06/23 06:46:30;;;;;;;17.08;6.05;;;;;;;25.79;46.13;98939.31;4935062;29;20046;-75
2022/06/23 06:48:56;;;;;;;20.98;5.75;;;;;;;25.55;46.65;98955.13;4953759;29;20038;-76
2022/06/23 06:51:25;;;;;;;17.38;6.75;;;;;;;25.63;45.97;98971.66;4955485;28;20546;-76
2022/06/23 06:53:57;;;;;;;12.52;6.88;;;;;;;25.28;46.06;98990.53;4947270;28;20027;-76
2022/06/23 06:56:50;;;;;;;12.65;6.72;;;;;;;25.07;47.48;99015.59;4962333;28;20549;-76
2022/06/23 06:59:21;;;;;;;20.73;7.15;;;;;;;24.79;48.08;99026.44;4955287;29;20035;-74
2022/06/23 07:01:52;;;;;;;15.80;8.38;;;;;;;24.66;48.15;99058.56;4955401;28;20499;-76
2022/06/23 07:04:43;;;;;;;37.38;9.23;;;;;;;24.68;49.05;99093.25;4948593;28;20035;-77
2022/06/23 07:07:18;;;;;;;19.17;7.82;;;;;;;24.59;50.10;99112.22;4941682;28;20038;-79
2022/06/23 07:09:51;;;;;;;17.15;6.45;;;;;;;24.35;51.20;99135.16;4945295;28;20027;-80
2022/06/23 07:12:17;;;;;;;42.45;8.85;;;;;;;24.19;54.16;99185.25;4963577;28;20552;-81
2022/06/23 07:14:51;;;;;;;25.95;6.80;;;;;;;23.72;59.91;99248.00;4963041;28;20114;-77
2022/06/23 07:17:37;;;;;;;34.58;8.90;;;;;;;22.84;62.67;99266.22;4954867;28;20375;-78
2022/06/23 07:20:19;;;;;;;21.55;7.38;;;;;;;21.90;67.05;99246.31;4953422;29;20042;-78
2022/06/23 07:22:58;;;;;;;34.72;8.15;;;;;;;21.68;68.84;99278.56;4969179;28;20516;-80
2022/06/23 07:25:29;;;;;;;19.77;9.05;;;;;;;21.60;72.80;99285.53;4959991;28;20085;-77
2022/06/23 07:28:14;;;;;;;13.85;7.60;;;;;;;21.70;70.53;99213.50;4955079;28;20518;-80
2022/06/23 07:30:54;;;;;;;15.07;7.43;;;;;;;22.20;66.75;99148.03;4954160;28;20039;-79
2022/06/23 07:33:26;;;;;;;15.82;7.57;;;;;;;22.08;67.67;99112.31;4936926;29;20027;-81
2022/06/23 07:35:55;;;;;;;14.65;7.72;;;;;;;21.94;68.21;99119.78;4937333;29;20027;-77
2022/06/23 07:38:39;;;;;;;17.77;7.70;;;;;;;22.24;67.45;99131.69;4957014;29;20430;-75
2022/06/23 07:41:18;;;;;;;17.48;6.72;;;;;;;22.36;68.46;99128.31;4960329;28;20034;-75
2022/06/23 07:44:04;;;;;;;12.50;6.47;;;;;;;22.46;68.02;99132.28;4951214;28;20031;-76
2022/06/23 07:46:32;;;;;;;10.18;6.18;;;;;;;22.64;67.44;99126.41;4956579;28;20022;-78
2022/06/23 07:48:58;;;;;;;13.95;6.57;;;;;;;22.86;66.89;99126.91;4939070;29;20394;-77
2022/06/23 07:51:25;;;;;;;13.70;7.03;;;;;;;22.88;67.35;99131.38;4937491;29;20030;-77
2022/06/23 07:53:53;;;;;;;12.30;7.07;;;;;;;22.23;69.21;99141.47;4959455;29;20027;-78
2022/06/23 07:56:27;;;;;;;17.10;8.63;;;;;;;21.69;72.10;99143.59;4955723;28;20062;-77
2022/06/23 07:58:57;;;;;;;14.27;8.10;;;;;;;20.88;75.82;99130.31;4957013;29;20050;-77
2022/06/23 08:01:37;;;;;;;13.80;7.35;;;;;;;20.56;78.85;99140.56;4939576;29;20047;-77
2022/06/23 08:04:12;;;;;;;14.95;8.25;;;;;;;20.73;79.08;99118.16;4945128;28;20045;-76
2022/06/23 08:06:38;;;;;;;20.73;8.43;;;;;;;20.93;79.02;99121.31;4994259;28;20034;-77
2022/06/23 08:09:28;;;;;;;12.07;7.80;;;;;;;20.85;79.67;99114.88;4967609;28;20372;-79
2022/06/23 08:14:47;;;;;;;18.23;9.30;;;;;;;21.16;79.91;99129.34;4987530;28;20050;-77
2022/06/23 08:17:15;;;;;;;15.48;8.95;;;;;;;20.90;79.91;99122.16;4993000;28;20149;-78
2022/06/23 08:19:58;;;;;;;20.35;9.18;;;;;;;20.86;79.83;99115.69;4973723;28;20035;-77
2022/06/23 08:22:31;;;;;;;18.10;8.68;;;;;;;21.06;80.23;99127.34;4947301;28;20073;-78
2022/06/23 08:25:01;;;;;;;16.70;7.43;;;;;;;21.22;80.26;99118.31;4992163;28;20022;-77
2022/06/23 08:27:30;;;;;;;14.80;7.60;;;;;;;21.08;79.64;99122.06;4969148;28;20037;-77
2022/06/23 08:30:01;;;;;;;17.60;7.45;;;;;;;20.70;79.19;99136.03;4983476;28;20041;-78
2022/06/23 08:32:29;;;;;;;17.83;9.10;;;;;;;20.63;80.96;99151.09;4970281;28;20035;-77
2022/06/23 08:35:02;;;;;;;19.25;9.23;;;;;;;20.72;83.35;99156.31;4980684;28;20026;-77
2022/06/23 08:37:35;;;;;;;16.10;9.20;;;;;;;20.70;83.70;99162.44;4962791;28;20422;-77
2022/06/23 08:40:23;;;;;;;19.50;8.88;;;;;;;20.79;83.31;99153.47;4981238;28;20079;-76
2022/06/23 08:42:57;;;;;;;19.52;10.18;;;;;;;20.96;83.15;99143.25;4944130;28;20023;-77
2022/06/23 08:45:39;;;;;;;14.40;8.43;;;;;;;20.76;82.52;99177.81;4950897;28;20026;-77
2022/06/23 08:48:14;;;;;;;16.80;8.63;;;;;;;20.58;84.01;99183.56;4976962;28;20034;-76
2022/06/23 08:50:45;;;;;;;14.48;7.07;;;;;;;20.55;82.59;99206.28;4993450;28;20054;-76
2022/06/23 08:53:17;;;;;;;18.48;8.07;;;;;;;20.26;81.99;99215.69;4982068;28;20022;-74
2022/06/23 08:55:58;;;;;;;29.88;12.32;;;;;;;20.25;83.93;99188.50;4968604;28;20559;-75
2022/06/23 08:58:37;;;;;;;31.45;14.88;;;;;;;20.34;82.96;99166.19;4947134;28;20039;-76
2022/06/23 09:01:18;;;;;;;19.10;7.47;;;;;;;20.44;84.31;99146.69;4956507;28;20034;-76
2022/06/23 09:04:19;;;;;;;17.95;8.43;;;;;;;20.52;83.11;99102.84;4983355;28;20154;-76
2022/06/23 09:07:09;;;;;;;15.10;7.20;;;;;;;20.53;81.99;99141.41;4981155;28;20027;-76
2022/06/23 09:09:44;;;;;;;20.95;7.47;;;;;;;20.80;81.38;99118.13;4966435;28;20031;-75
2022/06/23 09:12:20;;;;;;;14.18;8.93;;;;;;;20.98;82.62;99112.38;4955429;29;20035;-76
2022/06/23 09:15:24;;;;;;;14.18;8.45;;;;;;;20.77;81.54;99121.81;4950661;28;20035;-76
2022/06/23 09:18:07;;;;;;;18.63;8.80;;;;;;;20.91;84.01;99129.47;4869348;29;20173;-77
2022/06/23 09:21:00;;;;;;;12.80;8.80;;;;;;;20.71;83.41;99132.78;4952283;28;20043;-76
2022/06/23 09:23:45;;;;;;;15.65;9.05;;;;;;;20.39;82.53;99150.75;4954419;28;20061;-76
2022/06/23 09:26:29;;;;;;;21.02;10.50;;;;;;;20.47;84.15;99145.88;4955354;28;20026;-75
2022/06/23 09:29:10;;;;;;;14.02;9.82;;;;;;;20.73;85.34;99133.19;4979428;28;20038;-76
2022/06/23 09:31:58;;;;;;;16.20;8.85;;;;;;;21.01;82.76;99116.44;4981319;28;20034;-76
2022/06/23 09:34:49;;;;;;;13.40;8.32;;;;;;;21.26;78.72;99104.09;4973249;28;20049;-76
2022/06/23 09:37:40;;;;;;;16.05;8.45;;;;;;;21.58;78.33;99103.00;4956034;29;20042;-75
2022/06/23 09:40:33;;;;;;;16.17;6.72;;;;;;;21.92;77.38;99110.06;4971365;28;20035;-76
2022/06/23 09:43:17;;;;;;;14.82;8.63;;;;;;;22.01;75.88;99114.03;4988774;28;20042;-75
2022/06/23 09:45:59;;;;;;;12.05;7.82;;;;;;;22.01;76.62;99110.38;4962827;28;20042;-76
2022/06/23 09:49:04;;;;;;;16.75;8.55;;;;;;;22.43;74.98;99108.28;4984732;28;20429;-76
2022/06/23 09:51:45;;;;;;;12.52;7.88;;;;;;;22.56;75.26;99099.22;4956655;28;20489;-77
2022/06/23 09:54:22;;;;;;;16.73;7.57;;;;;;;22.41;68.96;99090.81;4936083;28;20039;-77
2022/06/23 09:57:14;;;;;;;14.73;8.30;;;;;;;22.49;70.31;99097.25;4957911;28;20435;-76
2022/06/23 10:00:05;;;;;;;13.90;7.22;;;;;;;22.73;67.70;99080.25;4952545;28;20543;-76
2022/06/23 10:02:40;;;;;;;16.52;7.50;;;;;;;23.05;69.41;99079.00;4989635;28;20036;-75
2022/06/23 10:05:23;;;;;;;10.90;8.07;;;;;;;23.05;69.36;99076.16;4969904;28;20022;-81
2022/06/23 10:08:16;;;;;;;24.80;8.57;;;;;;;23.53;66.88;99064.81;4955100;28;20594;-76
2022/06/23 10:10:47;;;;;;;12.88;8.38;;;;;;;23.89;66.57;99063.38;4985091;28;20031;-76
2022/06/23 10:13:36;;;;;;;12.18;6.95;;;;;;;23.78;65.05;99052.94;4962332;28;20092;-76
2022/06/23 10:16:21;;;;;;;13.52;7.70;;;;;;;24.37;66.17;99064.06;4958493;28;20097;-78
2022/06/23 10:19:20;;;;;;;15.73;8.52;;;;;;;24.69;62.74;99051.16;4991001;28;20034;-76
2022/06/23 10:22:18;;;;;;;14.40;7.55;;;;;;;24.78;63.29;99036.28;4975122;28;20065;-77
2022/06/23 10:24:43;;;;;;;12.60;7.22;;;;;;;24.70;61.26;99032.75;4953960;28;20053;-76
2022/06/23 10:27:22;;;;;;;10.05;7.25;;;;;;;24.58;59.18;99019.97;4976142;28;20481;-76
2022/06/23 10:30:07;;;;;;;14.13;7.40;;;;;;;24.44;62.50;99015.34;4955396;28;20031;-78
2022/06/23 10:32:35;;;;;;;12.18;7.60;;;;;;;24.26;63.32;99012.88;4986965;28;20461;-78
2022/06/23 10:35:31;;;;;;;12.65;5.82;;;;;;;23.88;61.29;99007.50;4961977;28;20035;-76
2022/06/23 10:37:56;;;;;;;11.75;5.78;;;;;;;24.04;59.83;99006.81;4966548;28;20109;-77
2022/06/23 10:40:34;;;;;;;13.63;5.75;;;;;;;23.95;57.95;99008.16;4974799;28;20102;-78
2022/06/23 10:43:37;;;;;;;11.13;6.28;;;;;;;24.14;57.92;99005.78;4973997;28;20031;-77
2022/06/23 10:46:02;;;;;;;12.90;6.53;;;;;;;24.28;59.44;99003.88;4962407;28;20102;-76
2022/06/23 10:48:27;;;;;;;14.88;6.22;;;;;;;24.20;56.31;99015.44;4973691;28;20118;-77
2022/06/23 10:51:14;;;;;;;11.07;6.47;;;;;;;24.38;57.52;99017.13;4963444;28;20046;-77
2022/06/23 10:54:01;;;;;;;13.50;5.82;;;;;;;24.74;57.86;99007.75;4974447;28;20038;-76
2022/06/23 10:56:58;;;;;;;11.82;5.28;;;;;;;24.68;55.86;99007.50;4956139;28;20055;-78
2022/06/23 11:00:08;;;;;;;12.52;5.60;;;;;;;24.81;56.33;99009.69;4955797;28;20037;-78
2022/06/23 11:02:40;;;;;;;15.68;5.68;;;;;;;25.02;55.27;99011.22;4877276;29;20052;-78
2022/06/23 11:05:37;;;;;;;10.98;6.20;;;;;;;24.98;56.29;99013.38;4963583;28;20058;-78
2022/06/23 11:08:15;;;;;;;10.65;5.47;;;;;;;25.44;58.35;99007.72;4938326;28;20031;-79
2022/06/23 11:10:57;;;;;;;9.68;6.65;;;;;;;26.00;59.26;99013.63;4950403;28;20028;-75
2022/06/23 11:13:35;;;;;;;17.00;6.40;;;;;;;25.86;56.57;99014.81;4976369;28;20045;-75
2022/06/23 11:16:09;;;;;;;11.50;5.55;;;;;;;25.55;52.10;98984.56;4986888;28;20034;-74
2022/06/23 11:18:41;;;;;;;11.27;4.90;;;;;;;26.02;57.80;98985.31;4992216;28;20038;-75
2022/06/23 11:21:32;;;;;;;9.85;5.00;;;;;;;26.35;59.52;98982.34;4991988;28;20018;-76
2022/06/23 11:23:57;;;;;;;11.52;6.25;;;;;;;26.29;55.56;98984.16;4946593;28;20504;-75
2022/06/23 11:26:42;;;;;;;11.65;5.85;;;;;;;26.38;56.60;98975.69;4955166;28;20035;-75
2022/06/23 11:29:24;;;;;;;12.00;6.47;;;;;;;26.54;54.68;98949.00;4965033;28;20034;-72
2022/06/23 11:31:55;;;;;;;13.13;5.50;;;;;;;26.60;56.70;98952.09;4955096;28;20066;-75
2022/06/23 11:34:34;;;;;;;11.60;5.20;;;;;;;26.98;56.48;98939.81;4983884;28;20489;-73
2022/06/23 11:37:18;;;;;;;6.97;5.13;;;;;;;26.96;53.70;98938.66;4993338;28;20031;-81
2022/06/23 11:40:06;;;;;;;12.50;5.38;;;;;;;26.93;54.17;98962.56;4979952;28;20055;-73
2022/06/23 11:42:53;;;;;;;11.52;5.03;;;;;;;26.96;55.12;98962.44;4983224;28;20018;-77
2022/06/23 11:45:24;;;;;;;11.85;6.90;;;;;;;27.08;54.26;98960.81;4966302;28;20026;-77
2022/06/23 11:48:14;;;;;;;11.50;6.22;;;;;;;27.36;54.52;98957.41;4961203;28;20037;-75
2022/06/23 11:51:08;;;;;;;19.10;6.22;;;;;;;27.41;53.02;98951.09;4995116;28;20034;-82
2022/06/23 11:53:36;;;;;;;7.53;5.22;;;;;;;26.88;52.30;98949.59;4985004;28;20497;-78
2022/06/23 11:56:16;;;;;;;13.70;5.22;;;;;;;27.05;52.00;98942.47;4964299;28;20571;-77
2022/06/23 11:59:00;;;;;;;;;;;;;;;27.08;52.04;98952.19;4947608;28;20023;-78
2022/06/23 12:01:28;;;;;;;13.27;5.55;;;;;;;27.34;52.31;98952.16;4982407;28;20286;-76
2022/06/23 12:04:28;;;;;;;11.57;5.25;;;;;;;27.56;52.14;98951.41;4958826;28;20379;-79
2022/06/23 12:07:08;;;;;;;10.40;4.97;;;;;;;27.09;54.15;98936.63;4964800;28;20038;-76
2022/06/23 12:09:40;;;;;;;11.25;6.13;;;;;;;27.37;52.39;98931.13;4960151;28;20486;-76
2022/06/23 12:12:06;;;;;;;9.75;5.20;;;;;;;27.55;52.09;98926.84;4948855;28;20058;-74
2022/06/23 12:14:33;;;;;;;7.90;4.88;;;;;;;27.65;51.91;98934.25;4972384;28;20069;-78
2022/06/23 12:17:39;;;;;;;7.78;5.25;;;;;;;27.80;53.20;98937.41;4967229;28;20026;-76
2022/06/23 12:20:30;;;;;;;9.07;5.35;;;;;;;27.73;52.03;98931.94;4893702;29;20035;-78
2022/06/23 12:23:10;;;;;;;5.45;4.68;;;;;;;27.80;52.35;98931.66;4963370;28;20375;-76
2022/06/23 12:25:51;;;;;;;21.98;5.75;;;;;;;27.86;52.64;98929.00;4981889;28;20027;-78
2022/06/23 12:28:37;;;;;;;9.13;4.53;;;;;;;27.95;51.72;98922.50;4973698;28;20034;-77
2022/06/23 12:31:11;;;;;;;17.50;7.00;;;;;;;27.93;52.84;98925.06;4965042;28;20026;-79